Jennings, Indiana
Current Conditions -  °F | °C
As of 8:35 AM on Thursday 27 Nov 2014 (Local Time) from KI67 Reporting Station
Overcast Overcast  
Wind Chill: 24°   Ceiling: 3400
Heat Index: 32°   Visibility: 10mi
Dew Point: 23°   Wind: 9mph
Humidity: 69%   Direction: 300°WNW
Pressure: 30.25"   Gusts: NA
Location:  39.645°N, 85.1744°W
Report Text: KI67 271335Z AUTO 30008KT 10SM OVC034 00/M05 A3025 RMK AO1
Loading
Personal Weather Stations






























Interactive Weather Map New forecast layout! Learn more

10-Day Weather Forecast

Advertisements
Track Severe Weather on mobile